createdAt,value
2022-08-16T00:04:30.831Z,11.00
2022-08-16T00:09:31.747Z,10.70
2022-08-16T00:14:36.480Z,10.80
2022-08-16T00:19:41.924Z,11.10
2022-08-16T00:24:44.932Z,11.40
2022-08-16T00:29:47.715Z,10.68
2022-08-16T00:35:02.892Z,11.25
2022-08-16T00:40:34.276Z,10.68
2022-08-16T00:45:58.303Z,12.02
2022-08-16T00:51:03.680Z,10.95
2022-08-16T00:56:10.108Z,12.15
2022-08-16T01:01:32.659Z,11.45
2022-08-16T01:06:40.321Z,10.13
2022-08-16T01:11:51.728Z,11.13
2022-08-16T01:16:58.708Z,11.20
2022-08-16T01:22:46.826Z,10.70
2022-08-16T01:27:34.438Z,11.00
2022-08-16T01:32:38.642Z,11.05
2022-08-16T01:37:42.573Z,11.40
2022-08-16T01:42:49.680Z,11.35
2022-08-16T01:47:55.342Z,10.98
2022-08-16T01:53:00.486Z,10.35
2022-08-16T01:58:31.682Z,10.70
2022-08-16T02:03:33.519Z,10.90
2022-08-16T02:08:34.488Z,11.75
2022-08-16T02:13:41.631Z,10.52
2022-08-16T02:18:43.770Z,11.75
2022-08-16T02:23:50.931Z,11.65
2022-08-16T02:28:57.935Z,11.85
2022-08-16T02:33:58.557Z,11.25
2022-08-16T02:39:10.838Z,11.18
2022-08-16T02:44:14.676Z,11.40
2022-08-16T02:49:20.510Z,10.13
2022-08-16T02:54:23.934Z,10.73
2022-08-16T02:59:27.496Z,10.38
2022-08-16T03:04:51.148Z,10.65
2022-08-16T03:09:54.802Z,11.13
2022-08-16T03:14:59.212Z,10.45
2022-08-16T03:20:02.891Z,9.32
2022-08-16T03:25:12.597Z,10.57
2022-08-16T03:30:26.641Z,10.40
2022-08-16T03:35:34.035Z,10.73
2022-08-16T03:40:42.889Z,10.73
2022-08-16T03:45:45.405Z,11.13
2022-08-16T03:50:59.817Z,11.05
2022-08-16T03:56:01.881Z,11.07
2022-08-16T04:01:05.417Z,10.95
2022-08-16T04:06:08.358Z,11.40
2022-08-16T04:11:10.730Z,11.07
2022-08-16T04:16:27.446Z,11.73
2022-08-16T04:21:45.907Z,10.60
2022-08-16T04:26:51.912Z,11.63
2022-08-16T04:31:58.210Z,9.90
2022-08-16T04:37:05.163Z,11.15
2022-08-16T04:42:11.273Z,11.25
2022-08-16T04:47:21.555Z,10.57
2022-08-16T04:52:34.190Z,10.77
2022-08-16T04:57:38.043Z,10.98
2022-08-16T05:02:42.887Z,10.85
2022-08-16T05:07:59.662Z,10.13
2022-08-16T05:13:06.419Z,10.02
2022-08-16T05:18:09.301Z,11.27
2022-08-16T05:23:25.567Z,11.02
2022-08-16T05:28:39.068Z,10.75
2022-08-16T05:33:42.791Z,11.18
2022-08-16T05:38:43.996Z,9.77
2022-08-16T05:43:48.164Z,10.50
2022-08-16T05:49:09.039Z,10.20
2022-08-16T05:54:17.382Z,10.45
2022-08-16T05:59:30.476Z,9.20
2022-08-16T06:04:36.022Z,10.10
2022-08-16T06:09:43.560Z,10.00
2022-08-16T06:14:45.955Z,8.27
2022-08-16T06:19:48.281Z,8.48
2022-08-16T06:24:55.329Z,7.38
2022-08-16T06:29:57.470Z,7.85
2022-08-16T06:35:02.808Z,6.40
2022-08-16T06:40:12.489Z,6.55
2022-08-16T06:45:21.453Z,6.93
2022-08-16T06:50:35.409Z,5.90
2022-08-16T06:55:40.228Z,6.03
2022-08-16T07:00:45.387Z,5.57
2022-08-16T07:05:47.689Z,5.05
2022-08-16T07:10:56.576Z,4.50
2022-08-16T07:16:01.657Z,4.38
2022-08-16T07:21:04.410Z,4.70
2022-08-16T07:26:08.834Z,4.60
2022-08-16T07:31:13.032Z,4.63
2022-08-16T07:36:21.872Z,4.43
2022-08-16T07:41:23.234Z,3.85
2022-08-16T07:46:38.822Z,4.38
2022-08-16T07:52:02.583Z,4.10
2022-08-16T07:57:21.036Z,3.85
2022-08-16T08:02:27.369Z,3.45
2022-08-16T08:07:32.540Z,4.25
2022-08-16T08:12:35.707Z,3.00
2022-08-16T08:17:42.978Z,3.50
2022-08-16T08:22:48.526Z,3.30
2022-08-16T08:27:50.476Z,2.80
2022-08-16T08:33:01.072Z,2.58
2022-08-16T08:38:08.220Z,2.97
2022-08-16T08:43:18.017Z,2.83
2022-08-16T08:48:34.219Z,2.80
2022-08-16T08:53:40.029Z,2.80
2022-08-16T08:58:54.041Z,2.92
2022-08-16T09:04:05.970Z,3.00
2022-08-16T09:09:09.611Z,3.00
2022-08-16T09:14:23.839Z,2.72
2022-08-16T09:19:33.082Z,2.40
2022-08-16T09:24:52.127Z,2.75
2022-08-16T09:30:00.245Z,2.60
2022-08-16T09:35:02.429Z,2.67
2022-08-16T09:40:32.907Z,2.78
2022-08-16T09:45:28.811Z,2.58
2022-08-16T09:50:37.278Z,2.80
2022-08-16T09:55:44.506Z,2.85
2022-08-16T10:00:45.879Z,3.05
2022-08-16T10:05:47.160Z,2.70
2022-08-16T10:11:03.333Z,2.80
2022-08-16T10:21:15.636Z,2.20
2022-08-16T10:27:16.840Z,2.25
2022-08-16T10:31:45.325Z,2.60
2022-08-16T10:36:46.946Z,2.55
2022-08-16T10:41:56.374Z,2.58
2022-08-16T10:46:59.703Z,2.70
2022-08-16T10:52:18.073Z,2.63
2022-08-16T10:57:24.562Z,2.58
2022-08-16T11:02:57.530Z,2.30
2022-08-16T11:07:51.931Z,2.10
2022-08-16T11:12:56.441Z,2.55
2022-08-16T11:23:18.275Z,2.25
2022-08-16T11:33:58.890Z,2.47
2022-08-16T11:39:01.013Z,2.10
2022-08-16T11:44:03.197Z,2.40
2022-08-16T11:49:08.618Z,2.50
2022-08-16T11:54:20.918Z,2.47
2022-08-16T11:59:28.459Z,2.58
2022-08-16T12:04:30.202Z,2.60
2022-08-16T12:09:31.172Z,2.60
2022-08-16T12:14:35.241Z,2.53
2022-08-16T12:19:36.482Z,2.72
2022-08-16T12:24:38.693Z,2.28
2022-08-16T12:29:40.619Z,2.65
2022-08-16T12:34:50.402Z,2.30
2022-08-16T12:39:56.171Z,2.70
2022-08-16T12:44:58.277Z,2.28
2022-08-16T12:49:58.970Z,2.40
2022-08-16T12:55:00.824Z,2.55
2022-08-16T13:00:02.855Z,2.45
2022-08-16T13:05:03.560Z,2.38
2022-08-16T13:10:21.197Z,2.25
2022-08-16T13:15:31.878Z,2.45
2022-08-16T13:20:37.034Z,2.65
2022-08-16T13:25:43.720Z,2.72
2022-08-16T13:30:50.497Z,2.47
2022-08-16T13:35:55.663Z,2.53
2022-08-16T13:41:02.286Z,3.22
2022-08-16T13:46:06.638Z,2.70
2022-08-16T13:51:07.666Z,2.35
2022-08-16T13:56:08.848Z,2.33
2022-08-16T14:01:12.672Z,2.85
2022-08-16T14:06:14.230Z,2.42
2022-08-16T14:11:16.478Z,2.58
2022-08-16T14:16:24.315Z,2.88
2022-08-16T14:21:35.428Z,2.42
2022-08-16T14:26:36.500Z,2.42
2022-08-16T14:31:39.746Z,2.55
2022-08-16T14:36:42.233Z,2.20
2022-08-16T14:41:43.138Z,2.20
2022-08-16T14:46:45.128Z,2.20
2022-08-16T14:51:46.364Z,2.42
2022-08-16T14:56:54.831Z,2.65
2022-08-16T15:02:00.738Z,2.67
2022-08-16T15:07:01.839Z,2.50
2022-08-16T15:12:07.253Z,2.42
2022-08-16T15:17:35.790Z,3.08
2022-08-16T15:22:40.768Z,2.90
2022-08-16T15:27:43.512Z,2.45
2022-08-16T15:32:45.866Z,2.45
2022-08-16T15:37:46.626Z,2.47
2022-08-16T15:42:57.670Z,2.60
2022-08-16T15:47:59.604Z,2.33
2022-08-16T15:53:12.564Z,2.08
2022-08-16T15:58:34.497Z,2.47
2022-08-16T16:03:36.202Z,2.60
2022-08-16T16:08:38.877Z,2.47
2022-08-16T16:13:40.573Z,2.38
2022-08-16T16:18:42.618Z,2.40
2022-08-16T16:23:54.739Z,2.40
2022-08-16T16:29:07.599Z,2.70
2022-08-16T16:34:16.553Z,2.22
2022-08-16T16:39:17.789Z,2.25
2022-08-16T16:44:32.109Z,2.78
2022-08-16T16:49:36.526Z,2.33
2022-08-16T16:54:42.474Z,2.28
2022-08-16T16:59:43.064Z,2.00
2022-08-16T17:04:47.200Z,2.10
2022-08-16T17:09:48.162Z,2.40
2022-08-16T17:14:48.778Z,2.38
2022-08-16T17:19:51.217Z,2.50
2022-08-16T17:24:53.312Z,2.38
2022-08-16T17:29:55.557Z,2.17
2022-08-16T17:35:00.418Z,2.22
2022-08-16T17:40:06.246Z,2.67
2022-08-16T17:45:23.084Z,2.42
2022-08-16T17:50:25.538Z,2.53
2022-08-16T17:55:30.977Z,2.42
2022-08-16T18:00:32.053Z,2.42
2022-08-16T18:05:34.253Z,2.60
2022-08-16T18:10:36.487Z,2.78
2022-08-16T18:15:37.747Z,2.58
2022-08-16T18:20:56.485Z,2.58
2022-08-16T18:25:58.729Z,2.85
2022-08-16T18:31:01.146Z,2.92
2022-08-16T18:36:20.504Z,3.15
2022-08-16T18:41:24.110Z,2.83
2022-08-16T18:46:24.739Z,2.90
2022-08-16T18:51:26.976Z,2.63
2022-08-16T18:56:56.797Z,3.10
2022-08-16T19:01:49.856Z,4.00
2022-08-16T19:06:51.879Z,3.92
2022-08-16T19:11:52.524Z,3.75
2022-08-16T19:16:53.775Z,4.13
2022-08-16T19:21:55.805Z,4.00
2022-08-16T19:26:57.197Z,4.22
2022-08-16T19:31:58.142Z,4.50
2022-08-16T19:37:00.138Z,3.88
2022-08-16T19:42:11.416Z,3.55
2022-08-16T19:47:12.254Z,3.97
2022-08-16T19:52:17.727Z,4.40
2022-08-16T19:57:19.396Z,4.10
2022-08-16T20:02:25.541Z,4.10
2022-08-16T20:07:38.770Z,4.63
2022-08-16T20:12:41.446Z,4.60
2022-08-16T20:17:43.975Z,4.68
2022-08-16T20:22:54.598Z,5.13
2022-08-16T20:27:56.026Z,4.95
2022-08-16T20:32:57.512Z,4.07
2022-08-16T20:38:00.949Z,4.30
2022-08-16T20:43:07.319Z,4.05
2022-08-16T20:48:08.105Z,4.28
2022-08-16T20:53:10.584Z,5.13
2022-08-16T20:58:11.194Z,4.57
2022-08-16T21:03:13.922Z,4.30
2022-08-16T21:08:51.143Z,4.05
2022-08-16T21:13:42.506Z,4.43
2022-08-16T21:18:44.145Z,4.60
2022-08-16T21:23:46.131Z,4.10
2022-08-16T21:28:46.781Z,4.75
2022-08-16T21:33:54.812Z,4.30
2022-08-16T21:38:57.289Z,4.57
2022-08-16T21:43:57.916Z,4.60
2022-08-16T21:48:58.597Z,4.38
2022-08-16T21:54:02.289Z,4.25
2022-08-16T21:59:07.005Z,4.05
2022-08-16T22:04:37.579Z,3.30
2022-08-16T22:09:31.273Z,4.07
2022-08-16T22:14:32.134Z,4.03
2022-08-16T22:19:32.724Z,4.40
2022-08-16T22:24:34.774Z,4.07
2022-08-16T22:29:35.421Z,4.68
2022-08-16T22:34:40.157Z,4.53
2022-08-16T22:39:42.102Z,4.95
2022-08-16T22:44:46.286Z,4.55
2022-08-16T22:49:47.211Z,4.82
2022-08-16T22:54:49.320Z,4.78
2022-08-16T22:59:50.187Z,5.25
2022-08-16T23:04:53.998Z,5.47
2022-08-16T23:09:55.943Z,5.32
2022-08-16T23:14:57.385Z,4.82
2022-08-16T23:19:58.957Z,4.70
2022-08-16T23:25:01.796Z,5.05
2022-08-16T23:30:02.439Z,4.57
2022-08-16T23:35:04.118Z,4.35
2022-08-16T23:40:07.566Z,3.95
2022-08-16T23:45:09.272Z,4.28
2022-08-16T23:50:10.534Z,4.22
2022-08-16T23:55:12.799Z,3.50
